sensor_id;sensor_type;location;lat;lon;timestamp;P1;durP1;ratioP1;P2;durP2;ratioP2
37633;SDS011;32048;49.902;22.508;2022-07-23T00:00:40;13.57;;;10.27;;
37633;SDS011;32048;49.902;22.508;2022-07-23T00:03:07;14.52;;;9.75;;
37633;SDS011;32048;49.902;22.508;2022-07-23T00:05:34;18.08;;;11.30;;
37633;SDS011;32048;49.902;22.508;2022-07-23T00:10:36;14.02;;;9.77;;
37633;SDS011;32048;49.902;22.508;2022-07-23T00:13:03;15.57;;;10.45;;
37633;SDS011;32048;49.902;22.508;2022-07-23T00:15:29;16.23;;;10.57;;
37633;SDS011;32048;49.902;22.508;2022-07-23T00:17:57;14.30;;;10.05;;
37633;SDS011;32048;49.902;22.508;2022-07-23T00:20:23;14.88;;;10.18;;
37633;SDS011;32048;49.902;22.508;2022-07-23T00:22:52;17.38;;;11.48;;
37633;SDS011;32048;49.902;22.508;2022-07-23T00:25:21;15.52;;;10.77;;
37633;SDS011;32048;49.902;22.508;2022-07-23T00:27:54;13.95;;;9.57;;
37633;SDS011;32048;49.902;22.508;2022-07-23T00:30:21;13.75;;;9.90;;
37633;SDS011;32048;49.902;22.508;2022-07-23T00:32:49;14.40;;;9.60;;
37633;SDS011;32048;49.902;22.508;2022-07-23T00:35:24;15.45;;;10.40;;
37633;SDS011;32048;49.902;22.508;2022-07-23T00:37:52;15.68;;;10.20;;
37633;SDS011;32048;49.902;22.508;2022-07-23T00:40:19;13.55;;;9.73;;
37633;SDS011;32048;49.902;22.508;2022-07-23T00:42:47;14.15;;;10.32;;
37633;SDS011;32048;49.902;22.508;2022-07-23T00:45:14;16.30;;;9.85;;
37633;SDS011;32048;49.902;22.508;2022-07-23T00:47:41;15.23;;;10.43;;
37633;SDS011;32048;49.902;22.508;2022-07-23T00:50:09;13.27;;;9.32;;
37633;SDS011;32048;49.902;22.508;2022-07-23T00:52:37;14.23;;;9.80;;
37633;SDS011;32048;49.902;22.508;2022-07-23T00:55:06;14.17;;;10.00;;
37633;SDS011;32048;49.902;22.508;2022-07-23T00:57:34;11.60;;;9.65;;
37633;SDS011;32048;49.902;22.508;2022-07-23T01:00:03;13.43;;;9.43;;
37633;SDS011;32048;49.902;22.508;2022-07-23T01:02:32;18.92;;;10.40;;
37633;SDS011;32048;49.902;22.508;2022-07-23T01:04:59;13.35;;;9.90;;
37633;SDS011;32048;49.902;22.508;2022-07-23T01:07:26;17.00;;;9.27;;
37633;SDS011;32048;49.902;22.508;2022-07-23T01:09:54;14.20;;;9.55;;
37633;SDS011;32048;49.902;22.508;2022-07-23T01:12:22;14.23;;;10.65;;
37633;SDS011;32048;49.902;22.508;2022-07-23T01:14:55;13.98;;;10.25;;
37633;SDS011;32048;49.902;22.508;2022-07-23T01:17:23;13.05;;;9.02;;
37633;SDS011;32048;49.902;22.508;2022-07-23T01:19:51;12.52;;;8.85;;
37633;SDS011;32048;49.902;22.508;2022-07-23T01:22:18;13.07;;;9.07;;
37633;SDS011;32048;49.902;22.508;2022-07-23T01:24:47;13.00;;;8.27;;
37633;SDS011;32048;49.902;22.508;2022-07-23T01:27:14;13.88;;;8.48;;
37633;SDS011;32048;49.902;22.508;2022-07-23T01:29:41;12.85;;;7.90;;
37633;SDS011;32048;49.902;22.508;2022-07-23T01:32:08;12.25;;;8.23;;
37633;SDS011;32048;49.902;22.508;2022-07-23T01:34:35;11.93;;;9.07;;
37633;SDS011;32048;49.902;22.508;2022-07-23T01:37:02;13.38;;;8.88;;
37633;SDS011;32048;49.902;22.508;2022-07-23T01:39:29;11.30;;;7.75;;
37633;SDS011;32048;49.902;22.508;2022-07-23T01:41:55;10.75;;;7.18;;
37633;SDS011;32048;49.902;22.508;2022-07-23T01:44:22;10.35;;;8.05;;
37633;SDS011;32048;49.902;22.508;2022-07-23T01:46:49;11.50;;;8.07;;
37633;SDS011;32048;49.902;22.508;2022-07-23T01:49:16;11.05;;;8.02;;
37633;SDS011;32048;49.902;22.508;2022-07-23T01:51:43;11.02;;;8.57;;
37633;SDS011;32048;49.902;22.508;2022-07-23T01:54:26;12.32;;;9.45;;
37633;SDS011;32048;49.902;22.508;2022-07-23T01:56:57;13.88;;;9.45;;
37633;SDS011;32048;49.902;22.508;2022-07-23T01:59:25;11.82;;;8.45;;
37633;SDS011;32048;49.902;22.508;2022-07-23T02:01:53;15.15;;;8.73;;
37633;SDS011;32048;49.902;22.508;2022-07-23T02:04:20;12.13;;;8.60;;
37633;SDS011;32048;49.902;22.508;2022-07-23T02:06:48;13.77;;;8.38;;
37633;SDS011;32048;49.902;22.508;2022-07-23T02:09:16;14.32;;;8.98;;
37633;SDS011;32048;49.902;22.508;2022-07-23T02:11:43;15.55;;;8.90;;
37633;SDS011;32048;49.902;22.508;2022-07-23T02:14:10;14.02;;;8.38;;
37633;SDS011;32048;49.902;22.508;2022-07-23T02:16:37;14.70;;;8.70;;
37633;SDS011;32048;49.902;22.508;2022-07-23T02:19:04;13.60;;;9.02;;
37633;SDS011;32048;49.902;22.508;2022-07-23T02:21:31;12.80;;;9.32;;
37633;SDS011;32048;49.902;22.508;2022-07-23T02:23:59;11.15;;;8.05;;
37633;SDS011;32048;49.902;22.508;2022-07-23T02:26:25;11.68;;;8.20;;
37633;SDS011;32048;49.902;22.508;2022-07-23T02:28:52;10.32;;;7.70;;
37633;SDS011;32048;49.902;22.508;2022-07-23T02:31:20;12.18;;;7.60;;
37633;SDS011;32048;49.902;22.508;2022-07-23T02:33:47;12.30;;;7.85;;
37633;SDS011;32048;49.902;22.508;2022-07-23T02:36:14;12.27;;;8.02;;
37633;SDS011;32048;49.902;22.508;2022-07-23T02:38:41;12.02;;;8.55;;
37633;SDS011;32048;49.902;22.508;2022-07-23T02:41:07;11.00;;;8.02;;
37633;SDS011;32048;49.902;22.508;2022-07-23T02:43:35;11.75;;;8.20;;
37633;SDS011;32048;49.902;22.508;2022-07-23T02:46:02;13.13;;;8.10;;
37633;SDS011;32048;49.902;22.508;2022-07-23T02:48:29;14.80;;;8.20;;
37633;SDS011;32048;49.902;22.508;2022-07-23T02:50:56;15.88;;;8.43;;
37633;SDS011;32048;49.902;22.508;2022-07-23T02:53:23;10.32;;;7.15;;
37633;SDS011;32048;49.902;22.508;2022-07-23T02:55:50;11.13;;;7.28;;
37633;SDS011;32048;49.902;22.508;2022-07-23T02:58:17;14.77;;;9.55;;
37633;SDS011;32048;49.902;22.508;2022-07-23T03:00:44;13.25;;;7.65;;
37633;SDS011;32048;49.902;22.508;2022-07-23T03:03:11;14.35;;;7.30;;
37633;SDS011;32048;49.902;22.508;2022-07-23T03:05:38;13.25;;;8.52;;
37633;SDS011;32048;49.902;22.508;2022-07-23T03:08:05;15.35;;;8.45;;
37633;SDS011;32048;49.902;22.508;2022-07-23T03:10:32;9.50;;;7.88;;
37633;SDS011;32048;49.902;22.508;2022-07-23T03:12:58;12.20;;;7.70;;
37633;SDS011;32048;49.902;22.508;2022-07-23T03:15:25;10.02;;;7.18;;
37633;SDS011;32048;49.902;22.508;2022-07-23T03:17:52;11.95;;;8.02;;
37633;SDS011;32048;49.902;22.508;2022-07-23T03:20:19;10.63;;;7.50;;
37633;SDS011;32048;49.902;22.508;2022-07-23T03:22:46;10.77;;;7.00;;
37633;SDS011;32048;49.902;22.508;2022-07-23T03:25:13;12.55;;;7.18;;
37633;SDS011;32048;49.902;22.508;2022-07-23T03:27:40;9.05;;;6.35;;
37633;SDS011;32048;49.902;22.508;2022-07-23T03:30:07;10.07;;;6.68;;
37633;SDS011;32048;49.902;22.508;2022-07-23T03:32:34;11.05;;;7.13;;
37633;SDS011;32048;49.902;22.508;2022-07-23T03:35:01;8.98;;;6.47;;
37633;SDS011;32048;49.902;22.508;2022-07-23T03:37:28;9.90;;;6.68;;
37633;SDS011;32048;49.902;22.508;2022-07-23T03:39:55;11.85;;;7.53;;
37633;SDS011;32048;49.902;22.508;2022-07-23T03:42:22;10.98;;;7.82;;
37633;SDS011;32048;49.902;22.508;2022-07-23T03:44:49;12.93;;;7.32;;
37633;SDS011;32048;49.902;22.508;2022-07-23T03:47:16;12.48;;;8.02;;
37633;SDS011;32048;49.902;22.508;2022-07-23T03:49:43;11.82;;;7.47;;
37633;SDS011;32048;49.902;22.508;2022-07-23T03:52:10;13.98;;;8.00;;
37633;SDS011;32048;49.902;22.508;2022-07-23T03:54:37;11.55;;;7.47;;
37633;SDS011;32048;49.902;22.508;2022-07-23T03:57:04;12.80;;;8.88;;
37633;SDS011;32048;49.902;22.508;2022-07-23T03:59:32;9.68;;;7.10;;
37633;SDS011;32048;49.902;22.508;2022-07-23T04:01:59;10.00;;;7.40;;
37633;SDS011;32048;49.902;22.508;2022-07-23T04:04:26;10.40;;;7.25;;
37633;SDS011;32048;49.902;22.508;2022-07-23T04:06:53;12.75;;;7.18;;
37633;SDS011;32048;49.902;22.508;2022-07-23T04:09:20;10.65;;;7.32;;
37633;SDS011;32048;49.902;22.508;2022-07-23T04:11:46;10.95;;;7.65;;
37633;SDS011;32048;49.902;22.508;2022-07-23T04:14:13;12.82;;;7.50;;
37633;SDS011;32048;49.902;22.508;2022-07-23T04:16:40;9.85;;;6.88;;
37633;SDS011;32048;49.902;22.508;2022-07-23T04:19:07;9.23;;;6.97;;
37633;SDS011;32048;49.902;22.508;2022-07-23T04:21:34;9.93;;;6.85;;
37633;SDS011;32048;49.902;22.508;2022-07-23T04:24:01;7.85;;;6.22;;
37633;SDS011;32048;49.902;22.508;2022-07-23T04:26:28;13.77;;;8.57;;
37633;SDS011;32048;49.902;22.508;2022-07-23T04:28:55;11.13;;;6.97;;
37633;SDS011;32048;49.902;22.508;2022-07-23T04:31:22;12.88;;;6.78;;
37633;SDS011;32048;49.902;22.508;2022-07-23T04:33:48;10.60;;;6.20;;
37633;SDS011;32048;49.902;22.508;2022-07-23T04:36:15;12.25;;;6.82;;
37633;SDS011;32048;49.902;22.508;2022-07-23T04:38:42;9.98;;;7.30;;
37633;SDS011;32048;49.902;22.508;2022-07-23T04:41:09;9.38;;;6.10;;
37633;SDS011;32048;49.902;22.508;2022-07-23T04:43:36;10.55;;;6.07;;
37633;SDS011;32048;49.902;22.508;2022-07-23T04:46:03;11.23;;;6.15;;
37633;SDS011;32048;49.902;22.508;2022-07-23T04:48:32;10.68;;;6.43;;
37633;SDS011;32048;49.902;22.508;2022-07-23T04:51:02;9.70;;;6.18;;
37633;SDS011;32048;49.902;22.508;2022-07-23T04:53:29;9.80;;;6.40;;
37633;SDS011;32048;49.902;22.508;2022-07-23T04:55:56;9.07;;;6.43;;
37633;SDS011;32048;49.902;22.508;2022-07-23T04:58:24;8.38;;;6.43;;
37633;SDS011;32048;49.902;22.508;2022-07-23T05:00:50;11.63;;;6.28;;
37633;SDS011;32048;49.902;22.508;2022-07-23T05:03:17;9.95;;;6.40;;
37633;SDS011;32048;49.902;22.508;2022-07-23T05:05:44;12.48;;;6.30;;
37633;SDS011;32048;49.902;22.508;2022-07-23T05:08:11;8.32;;;5.90;;
37633;SDS011;32048;49.902;22.508;2022-07-23T05:10:38;9.45;;;6.07;;
37633;SDS011;32048;49.902;22.508;2022-07-23T05:13:05;7.95;;;5.97;;
37633;SDS011;32048;49.902;22.508;2022-07-23T05:15:32;8.98;;;6.00;;
37633;SDS011;32048;49.902;22.508;2022-07-23T05:17:59;11.93;;;6.05;;
37633;SDS011;32048;49.902;22.508;2022-07-23T05:20:26;9.00;;;6.28;;
37633;SDS011;32048;49.902;22.508;2022-07-23T05:22:53;8.40;;;6.05;;
37633;SDS011;32048;49.902;22.508;2022-07-23T05:25:20;10.23;;;5.82;;
37633;SDS011;32048;49.902;22.508;2022-07-23T05:27:47;8.60;;;6.00;;
37633;SDS011;32048;49.902;22.508;2022-07-23T05:30:13;12.95;;;7.07;;
37633;SDS011;32048;49.902;22.508;2022-07-23T05:32:40;9.43;;;6.05;;
37633;SDS011;32048;49.902;22.508;2022-07-23T05:35:07;9.85;;;6.60;;
37633;SDS011;32048;49.902;22.508;2022-07-23T05:37:34;8.48;;;6.07;;
37633;SDS011;32048;49.902;22.508;2022-07-23T05:40:05;8.13;;;5.78;;
37633;SDS011;32048;49.902;22.508;2022-07-23T05:42:34;10.52;;;6.10;;
37633;SDS011;32048;49.902;22.508;2022-07-23T05:45:02;7.18;;;5.50;;
37633;SDS011;32048;49.902;22.508;2022-07-23T05:47:43;7.82;;;5.43;;
37633;SDS011;32048;49.902;22.508;2022-07-23T05:50:12;9.38;;;5.72;;
37633;SDS011;32048;49.902;22.508;2022-07-23T05:52:40;9.73;;;6.18;;
37633;SDS011;32048;49.902;22.508;2022-07-23T05:55:07;8.05;;;6.38;;
37633;SDS011;32048;49.902;22.508;2022-07-23T06:00:03;11.75;;;5.68;;
37633;SDS011;32048;49.902;22.508;2022-07-23T06:02:31;11.05;;;6.00;;
37633;SDS011;32048;49.902;22.508;2022-07-23T06:04:58;12.07;;;6.47;;
37633;SDS011;32048;49.902;22.508;2022-07-23T06:07:25;11.07;;;6.00;;
37633;SDS011;32048;49.902;22.508;2022-07-23T06:09:52;10.18;;;6.97;;
37633;SDS011;32048;49.902;22.508;2022-07-23T06:12:19;10.40;;;6.50;;
37633;SDS011;32048;49.902;22.508;2022-07-23T06:14:46;10.23;;;5.80;;
37633;SDS011;32048;49.902;22.508;2022-07-23T06:17:16;12.52;;;6.28;;
37633;SDS011;32048;49.902;22.508;2022-07-23T06:19:43;11.70;;;6.50;;
37633;SDS011;32048;49.902;22.508;2022-07-23T06:22:10;11.15;;;6.68;;
37633;SDS011;32048;49.902;22.508;2022-07-23T06:24:37;11.02;;;6.32;;
37633;SDS011;32048;49.902;22.508;2022-07-23T06:27:04;10.20;;;6.53;;
37633;SDS011;32048;49.902;22.508;2022-07-23T06:29:31;10.15;;;6.75;;
37633;SDS011;32048;49.902;22.508;2022-07-23T06:31:58;8.85;;;6.10;;
37633;SDS011;32048;49.902;22.508;2022-07-23T06:34:25;11.95;;;6.25;;
37633;SDS011;32048;49.902;22.508;2022-07-23T06:36:52;9.05;;;6.60;;
37633;SDS011;32048;49.902;22.508;2022-07-23T06:39:19;9.15;;;6.22;;
37633;SDS011;32048;49.902;22.508;2022-07-23T06:41:46;11.98;;;6.55;;
37633;SDS011;32048;49.902;22.508;2022-07-23T06:44:17;10.38;;;6.05;;
37633;SDS011;32048;49.902;22.508;2022-07-23T06:46:44;8.77;;;6.32;;
37633;SDS011;32048;49.902;22.508;2022-07-23T06:49:11;11.30;;;7.45;;
37633;SDS011;32048;49.902;22.508;2022-07-23T06:51:38;8.73;;;6.72;;
37633;SDS011;32048;49.902;22.508;2022-07-23T06:54:05;8.68;;;6.30;;
37633;SDS011;32048;49.902;22.508;2022-07-23T06:56:32;14.05;;;7.05;;
37633;SDS011;32048;49.902;22.508;2022-07-23T06:59:00;8.02;;;6.07;;
37633;SDS011;32048;49.902;22.508;2022-07-23T07:01:27;9.95;;;6.35;;
37633;SDS011;32048;49.902;22.508;2022-07-23T07:03:54;7.00;;;5.75;;
37633;SDS011;32048;49.902;22.508;2022-07-23T07:06:21;8.90;;;6.13;;
37633;SDS011;32048;49.902;22.508;2022-07-23T07:08:48;7.85;;;6.07;;
37633;SDS011;32048;49.902;22.508;2022-07-23T07:11:15;9.10;;;6.30;;
37633;SDS011;32048;49.902;22.508;2022-07-23T07:13:42;8.80;;;6.25;;
37633;SDS011;32048;49.902;22.508;2022-07-23T07:16:09;10.57;;;6.25;;
37633;SDS011;32048;49.902;22.508;2022-07-23T07:18:36;8.90;;;5.90;;
37633;SDS011;32048;49.902;22.508;2022-07-23T07:21:03;9.57;;;5.97;;
37633;SDS011;32048;49.902;22.508;2022-07-23T07:23:30;8.10;;;6.03;;
37633;SDS011;32048;49.902;22.508;2022-07-23T07:25:57;10.63;;;7.05;;
37633;SDS011;32048;49.902;22.508;2022-07-23T07:28:23;13.85;;;6.80;;
37633;SDS011;32048;49.902;22.508;2022-07-23T07:30:51;10.43;;;6.35;;
37633;SDS011;32048;49.902;22.508;2022-07-23T07:33:18;7.43;;;6.20;;
37633;SDS011;32048;49.902;22.508;2022-07-23T07:35:45;10.25;;;6.60;;
37633;SDS011;32048;49.902;22.508;2022-07-23T07:38:12;12.40;;;6.22;;
37633;SDS011;32048;49.902;22.508;2022-07-23T07:40:39;10.05;;;7.10;;
37633;SDS011;32048;49.902;22.508;2022-07-23T07:43:06;12.23;;;7.32;;
37633;SDS011;32048;49.902;22.508;2022-07-23T07:45:33;9.63;;;6.07;;
37633;SDS011;32048;49.902;22.508;2022-07-23T07:48:00;12.93;;;6.07;;
37633;SDS011;32048;49.902;22.508;2022-07-23T07:50:27;9.13;;;5.80;;
37633;SDS011;32048;49.902;22.508;2022-07-23T07:52:54;6.88;;;5.75;;
37633;SDS011;32048;49.902;22.508;2022-07-23T07:55:22;17.77;;;6.45;;
37633;SDS011;32048;49.902;22.508;2022-07-23T07:57:49;7.93;;;5.38;;
37633;SDS011;32048;49.902;22.508;2022-07-23T08:00:16;9.20;;;6.13;;
37633;SDS011;32048;49.902;22.508;2022-07-23T08:02:47;10.18;;;6.10;;
37633;SDS011;32048;49.902;22.508;2022-07-23T08:05:23;10.30;;;6.13;;
37633;SDS011;32048;49.902;22.508;2022-07-23T08:10:21;8.10;;;5.40;;
37633;SDS011;32048;49.902;22.508;2022-07-23T08:12:51;8.85;;;6.05;;
37633;SDS011;32048;49.902;22.508;2022-07-23T08:15:26;7.22;;;5.60;;
37633;SDS011;32048;49.902;22.508;2022-07-23T08:17:54;7.93;;;5.97;;
37633;SDS011;32048;49.902;22.508;2022-07-23T08:22:59;12.68;;;5.85;;
37633;SDS011;32048;49.902;22.508;2022-07-23T08:25:31;7.22;;;5.78;;
37633;SDS011;32048;49.902;22.508;2022-07-23T08:28:03;9.85;;;6.38;;
37633;SDS011;32048;49.902;22.508;2022-07-23T08:30:32;13.25;;;7.65;;
37633;SDS011;32048;49.902;22.508;2022-07-23T08:35:59;7.55;;;5.82;;
37633;SDS011;32048;49.902;22.508;2022-07-23T08:38:29;11.02;;;5.60;;
37633;SDS011;32048;49.902;22.508;2022-07-23T08:40:57;11.05;;;5.70;;
37633;SDS011;32048;49.902;22.508;2022-07-23T08:43:28;9.57;;;5.53;;
37633;SDS011;32048;49.902;22.508;2022-07-23T08:45:58;7.75;;;5.63;;
37633;SDS011;32048;49.902;22.508;2022-07-23T08:48:28;12.52;;;5.90;;
37633;SDS011;32048;49.902;22.508;2022-07-23T08:50:58;8.70;;;5.60;;
37633;SDS011;32048;49.902;22.508;2022-07-23T08:53:28;6.85;;;5.97;;
37633;SDS011;32048;49.902;22.508;2022-07-23T08:55:56;10.00;;;5.20;;
37633;SDS011;32048;49.902;22.508;2022-07-23T08:58:25;8.43;;;5.45;;
37633;SDS011;32048;49.902;22.508;2022-07-23T09:00:54;6.72;;;5.25;;
37633;SDS011;32048;49.902;22.508;2022-07-23T09:03:26;5.78;;;5.03;;
37633;SDS011;32048;49.902;22.508;2022-07-23T09:05:58;8.35;;;5.25;;
37633;SDS011;32048;49.902;22.508;2022-07-23T09:08:33;6.32;;;5.10;;
37633;SDS011;32048;49.902;22.508;2022-07-23T09:11:05;5.68;;;5.18;;
37633;SDS011;32048;49.902;22.508;2022-07-23T09:16:28;9.02;;;5.25;;
37633;SDS011;32048;49.902;22.508;2022-07-23T09:19:00;7.00;;;5.00;;
37633;SDS011;32048;49.902;22.508;2022-07-23T09:21:33;6.28;;;5.45;;
37633;SDS011;32048;49.902;22.508;2022-07-23T09:31:55;6.85;;;5.43;;
37633;SDS011;32048;49.902;22.508;2022-07-23T09:34:26;6.28;;;4.85;;
37633;SDS011;32048;49.902;22.508;2022-07-23T09:36:57;8.52;;;5.78;;
37633;SDS011;32048;49.902;22.508;2022-07-23T09:39:34;7.38;;;5.25;;
37633;SDS011;32048;49.902;22.508;2022-07-23T09:44:41;7.57;;;5.05;;
37633;SDS011;32048;49.902;22.508;2022-07-23T09:47:09;8.57;;;4.85;;
37633;SDS011;32048;49.902;22.508;2022-07-23T09:49:36;5.80;;;5.03;;
37633;SDS011;32048;49.902;22.508;2022-07-23T09:52:03;7.60;;;5.28;;
37633;SDS011;32048;49.902;22.508;2022-07-23T09:54:35;7.40;;;4.78;;
37633;SDS011;32048;49.902;22.508;2022-07-23T09:57:05;10.25;;;4.68;;
37633;SDS011;32048;49.902;22.508;2022-07-23T09:59:44;6.00;;;5.40;;
37633;SDS011;32048;49.902;22.508;2022-07-23T10:02:14;8.38;;;5.07;;
37633;SDS011;32048;49.902;22.508;2022-07-23T10:04:41;7.60;;;5.00;;
37633;SDS011;32048;49.902;22.508;2022-07-23T10:07:10;6.32;;;4.68;;
37633;SDS011;32048;49.902;22.508;2022-07-23T10:12:10;9.25;;;4.80;;
37633;SDS011;32048;49.902;22.508;2022-07-23T10:14:42;11.50;;;6.15;;
37633;SDS011;32048;49.902;22.508;2022-07-23T10:17:09;5.05;;;4.55;;
37633;SDS011;32048;49.902;22.508;2022-07-23T10:25:12;5.38;;;4.70;;
37633;SDS011;32048;49.902;22.508;2022-07-23T10:33:32;8.23;;;5.10;;
37633;SDS011;32048;49.902;22.508;2022-07-23T10:36:27;7.82;;;5.28;;
37633;SDS011;32048;49.902;22.508;2022-07-23T10:39:08;7.97;;;5.35;;
37633;SDS011;32048;49.902;22.508;2022-07-23T10:41:41;7.55;;;5.43;;
37633;SDS011;32048;49.902;22.508;2022-07-23T10:44:09;7.15;;;5.38;;
37633;SDS011;32048;49.902;22.508;2022-07-23T10:46:58;7.60;;;5.95;;
37633;SDS011;32048;49.902;22.508;2022-07-23T10:49:34;6.57;;;5.88;;
37633;SDS011;32048;49.902;22.508;2022-07-23T10:57:12;6.55;;;5.57;;
37633;SDS011;32048;49.902;22.508;2022-07-23T11:02:32;7.93;;;5.65;;
37633;SDS011;32048;49.902;22.508;2022-07-23T11:05:06;7.35;;;5.88;;
37633;SDS011;32048;49.902;22.508;2022-07-23T11:32:01;7.63;;;5.53;;
37633;SDS011;32048;49.902;22.508;2022-07-23T11:34:55;7.75;;;5.85;;
37633;SDS011;32048;49.902;22.508;2022-07-23T11:37:30;8.88;;;6.40;;
37633;SDS011;32048;49.902;22.508;2022-07-23T11:40:00;9.63;;;6.00;;
37633;SDS011;32048;49.902;22.508;2022-07-23T11:42:29;11.30;;;6.40;;
37633;SDS011;32048;49.902;22.508;2022-07-23T11:44:57;10.70;;;7.25;;
37633;SDS011;32048;49.902;22.508;2022-07-23T11:47:25;8.48;;;6.45;;
37633;SDS011;32048;49.902;22.508;2022-07-23T11:52:27;8.10;;;6.40;;
37633;SDS011;32048;49.902;22.508;2022-07-23T11:57:27;7.40;;;6.13;;
37633;SDS011;32048;49.902;22.508;2022-07-23T11:59:57;10.52;;;5.85;;
37633;SDS011;32048;49.902;22.508;2022-07-23T12:02:41;7.20;;;6.13;;
37633;SDS011;32048;49.902;22.508;2022-07-23T12:05:13;7.38;;;5.85;;
37633;SDS011;32048;49.902;22.508;2022-07-23T12:07:42;9.05;;;6.07;;
37633;SDS011;32048;49.902;22.508;2022-07-23T12:12:39;9.98;;;6.68;;
37633;SDS011;32048;49.902;22.508;2022-07-23T12:15:36;7.38;;;6.40;;
37633;SDS011;32048;49.902;22.508;2022-07-23T12:18:09;7.55;;;6.47;;
37633;SDS011;32048;49.902;22.508;2022-07-23T12:20:43;8.00;;;6.03;;
37633;SDS011;32048;49.902;22.508;2022-07-23T12:23:15;9.15;;;5.60;;
37633;SDS011;32048;49.902;22.508;2022-07-23T12:25:47;7.35;;;6.53;;
37633;SDS011;32048;49.902;22.508;2022-07-23T12:28:33;7.07;;;6.38;;
37633;SDS011;32048;49.902;22.508;2022-07-23T12:31:04;8.80;;;6.00;;
37633;SDS011;32048;49.902;22.508;2022-07-23T12:33:36;6.93;;;5.80;;
37633;SDS011;32048;49.902;22.508;2022-07-23T12:36:07;9.18;;;6.00;;
37633;SDS011;32048;49.902;22.508;2022-07-23T12:41:07;9.02;;;6.65;;
37633;SDS011;32048;49.902;22.508;2022-07-23T12:43:38;7.47;;;6.03;;
37633;SDS011;32048;49.902;22.508;2022-07-23T12:46:10;10.07;;;6.47;;
37633;SDS011;32048;49.902;22.508;2022-07-23T12:51:20;6.72;;;5.93;;
37633;SDS011;32048;49.902;22.508;2022-07-23T12:53:53;7.82;;;5.82;;
37633;SDS011;32048;49.902;22.508;2022-07-23T12:56:31;6.07;;;5.53;;
37633;SDS011;32048;49.902;22.508;2022-07-23T13:01:36;6.93;;;5.53;;
37633;SDS011;32048;49.902;22.508;2022-07-23T13:04:10;9.63;;;5.90;;
37633;SDS011;32048;49.902;22.508;2022-07-23T13:06:56;6.88;;;5.35;;
37633;SDS011;32048;49.902;22.508;2022-07-23T13:09:27;7.47;;;6.53;;
37633;SDS011;32048;49.902;22.508;2022-07-23T13:11:58;6.80;;;5.55;;
37633;SDS011;32048;49.902;22.508;2022-07-23T13:14:26;9.38;;;5.65;;
37633;SDS011;32048;49.902;22.508;2022-07-23T13:16:54;7.43;;;5.50;;
37633;SDS011;32048;49.902;22.508;2022-07-23T13:19:22;8.85;;;6.00;;
37633;SDS011;32048;49.902;22.508;2022-07-23T13:21:52;10.43;;;6.10;;
37633;SDS011;32048;49.902;22.508;2022-07-23T13:24:20;6.43;;;5.82;;
37633;SDS011;32048;49.902;22.508;2022-07-23T13:26:47;10.63;;;6.30;;
37633;SDS011;32048;49.902;22.508;2022-07-23T13:29:18;9.60;;;5.53;;
37633;SDS011;32048;49.902;22.508;2022-07-23T13:31:46;10.05;;;5.45;;
37633;SDS011;32048;49.902;22.508;2022-07-23T13:34:14;5.90;;;5.20;;
37633;SDS011;32048;49.902;22.508;2022-07-23T13:36:42;7.20;;;5.20;;
37633;SDS011;32048;49.902;22.508;2022-07-23T13:39:10;7.68;;;5.63;;
37633;SDS011;32048;49.902;22.508;2022-07-23T13:41:37;9.70;;;5.68;;
37633;SDS011;32048;49.902;22.508;2022-07-23T13:44:05;9.43;;;5.90;;
37633;SDS011;32048;49.902;22.508;2022-07-23T13:46:33;7.63;;;6.03;;
37633;SDS011;32048;49.902;22.508;2022-07-23T13:49:01;7.63;;;6.22;;
37633;SDS011;32048;49.902;22.508;2022-07-23T13:51:32;7.53;;;6.30;;
37633;SDS011;32048;49.902;22.508;2022-07-23T13:53:59;7.50;;;6.13;;
37633;SDS011;32048;49.902;22.508;2022-07-23T13:56:26;7.35;;;6.32;;
37633;SDS011;32048;49.902;22.508;2022-07-23T13:58:53;6.63;;;5.85;;
37633;SDS011;32048;49.902;22.508;2022-07-23T14:01:20;7.32;;;5.97;;
37633;SDS011;32048;49.902;22.508;2022-07-23T14:03:47;7.63;;;5.45;;
37633;SDS011;32048;49.902;22.508;2022-07-23T14:06:15;6.38;;;5.78;;
37633;SDS011;32048;49.902;22.508;2022-07-23T14:08:43;10.93;;;5.78;;
37633;SDS011;32048;49.902;22.508;2022-07-23T14:11:11;7.13;;;6.43;;
37633;SDS011;32048;49.902;22.508;2022-07-23T14:13:39;7.82;;;6.05;;
37633;SDS011;32048;49.902;22.508;2022-07-23T14:16:07;9.98;;;7.28;;
37633;SDS011;32048;49.902;22.508;2022-07-23T14:18:34;7.65;;;6.18;;
37633;SDS011;32048;49.902;22.508;2022-07-23T14:21:02;6.95;;;6.25;;
37633;SDS011;32048;49.902;22.508;2022-07-23T14:23:29;8.77;;;6.07;;
37633;SDS011;32048;49.902;22.508;2022-07-23T14:25:56;10.30;;;6.55;;
37633;SDS011;32048;49.902;22.508;2022-07-23T14:28:24;8.23;;;6.70;;
37633;SDS011;32048;49.902;22.508;2022-07-23T14:30:51;7.80;;;6.10;;
37633;SDS011;32048;49.902;22.508;2022-07-23T14:33:18;8.20;;;6.40;;
37633;SDS011;32048;49.902;22.508;2022-07-23T14:38:13;6.45;;;5.80;;
37633;SDS011;32048;49.902;22.508;2022-07-23T14:40:40;6.80;;;6.13;;
37633;SDS011;32048;49.902;22.508;2022-07-23T14:43:08;12.55;;;6.22;;
37633;SDS011;32048;49.902;22.508;2022-07-23T14:45:39;10.85;;;6.40;;
37633;SDS011;32048;49.902;22.508;2022-07-23T14:48:06;7.60;;;6.40;;
37633;SDS011;32048;49.902;22.508;2022-07-23T14:50:34;7.63;;;6.82;;
37633;SDS011;32048;49.902;22.508;2022-07-23T14:53:01;6.55;;;5.88;;
37633;SDS011;32048;49.902;22.508;2022-07-23T14:55:30;12.35;;;6.85;;
37633;SDS011;32048;49.902;22.508;2022-07-23T14:57:58;9.38;;;7.13;;
37633;SDS011;32048;49.902;22.508;2022-07-23T15:00:26;11.10;;;6.97;;
37633;SDS011;32048;49.902;22.508;2022-07-23T15:02:53;7.22;;;6.00;;
37633;SDS011;32048;49.902;22.508;2022-07-23T15:05:23;6.78;;;6.05;;
37633;SDS011;32048;49.902;22.508;2022-07-23T15:07:50;7.32;;;6.18;;
37633;SDS011;32048;49.902;22.508;2022-07-23T15:10:18;8.88;;;6.60;;
37633;SDS011;32048;49.902;22.508;2022-07-23T15:12:48;7.10;;;6.40;;
37633;SDS011;32048;49.902;22.508;2022-07-23T15:15:15;7.07;;;6.37;;
37633;SDS011;32048;49.902;22.508;2022-07-23T15:17:43;8.07;;;6.50;;
37633;SDS011;32048;49.902;22.508;2022-07-23T15:20:10;8.02;;;6.22;;
37633;SDS011;32048;49.902;22.508;2022-07-23T15:22:40;8.70;;;5.97;;
37633;SDS011;32048;49.902;22.508;2022-07-23T15:25:08;10.63;;;6.05;;
37633;SDS011;32048;49.902;22.508;2022-07-23T15:27:38;8.45;;;6.45;;
37633;SDS011;32048;49.902;22.508;2022-07-23T15:30:05;6.85;;;6.20;;
37633;SDS011;32048;49.902;22.508;2022-07-23T15:32:34;7.57;;;6.60;;
37633;SDS011;32048;49.902;22.508;2022-07-23T15:35:01;9.10;;;7.38;;
37633;SDS011;32048;49.902;22.508;2022-07-23T15:37:31;7.32;;;6.30;;
37633;SDS011;32048;49.902;22.508;2022-07-23T15:42:28;7.93;;;6.28;;
37633;SDS011;32048;49.902;22.508;2022-07-23T15:44:55;9.30;;;6.55;;
37633;SDS011;32048;49.902;22.508;2022-07-23T15:47:22;11.23;;;6.80;;
37633;SDS011;32048;49.902;22.508;2022-07-23T15:52:17;8.10;;;6.45;;
37633;SDS011;32048;49.902;22.508;2022-07-23T15:54:47;8.80;;;6.65;;
37633;SDS011;32048;49.902;22.508;2022-07-23T15:57:14;8.25;;;6.68;;
37633;SDS011;32048;49.902;22.508;2022-07-23T15:59:45;7.35;;;6.53;;
37633;SDS011;32048;49.902;22.508;2022-07-23T16:02:13;8.53;;;6.40;;
37633;SDS011;32048;49.902;22.508;2022-07-23T16:04:40;8.30;;;6.97;;
37633;SDS011;32048;49.902;22.508;2022-07-23T16:07:07;19.20;;;7.85;;
37633;SDS011;32048;49.902;22.508;2022-07-23T16:09:40;15.07;;;8.05;;
37633;SDS011;32048;49.902;22.508;2022-07-23T16:12:07;8.52;;;6.63;;